sensor_id;sensor_type;location;lat;lon;timestamp;pressure;altitude;pressure_sealevel;temperature;humidity
8069;BME280;4077;43.702;24.896;2023-07-31T00:00:27;98892.00;;;20.21;100.00
8069;BME280;4077;43.702;24.896;2023-07-31T00:02:54;98893.00;;;20.18;100.00
8069;BME280;4077;43.702;24.896;2023-07-31T00:05:19;98883.34;;;20.19;100.00
8069;BME280;4077;43.702;24.896;2023-07-31T00:07:45;98888.69;;;20.16;100.00
8069;BME280;4077;43.702;24.896;2023-07-31T00:10:10;98886.13;;;20.14;100.00
8069;BME280;4077;43.702;24.896;2023-07-31T00:12:37;98893.38;;;20.08;100.00
8069;BME280;4077;43.702;24.896;2023-07-31T00:15:03;98878.06;;;19.97;100.00
8069;BME280;4077;43.702;24.896;2023-07-31T00:17:29;98880.78;;;19.94;100.00
8069;BME280;4077;43.702;24.896;2023-07-31T00:19:55;98889.06;;;19.82;100.00
8069;BME280;4077;43.702;24.896;2023-07-31T00:22:20;98878.38;;;19.88;100.00
8069;BME280;4077;43.702;24.896;2023-07-31T00:24:46;98886.00;;;19.94;100.00
8069;BME280;4077;43.702;24.896;2023-07-31T00:27:11;98869.06;;;20.04;100.00
8069;BME280;4077;43.702;24.896;2023-07-31T00:29:36;98878.16;;;19.94;100.00
8069;BME280;4077;43.702;24.896;2023-07-31T00:32:02;98854.38;;;20.00;100.00
8069;BME280;4077;43.702;24.896;2023-07-31T00:34:28;98850.59;;;20.07;100.00
8069;BME280;4077;43.702;24.896;2023-07-31T00:36:53;98841.56;;;19.92;100.00
8069;BME280;4077;43.702;24.896;2023-07-31T00:39:18;98839.31;;;19.82;100.00
8069;BME280;4077;43.702;24.896;2023-07-31T00:41:44;98830.19;;;19.68;100.00
8069;BME280;4077;43.702;24.896;2023-07-31T00:44:09;98828.19;;;19.75;100.00
8069;BME280;4077;43.702;24.896;2023-07-31T00:46:35;98826.22;;;19.82;100.00
8069;BME280;4077;43.702;24.896;2023-07-31T00:49:00;98824.84;;;19.95;100.00
8069;BME280;4077;43.702;24.896;2023-07-31T00:51:26;98828.63;;;20.11;100.00
8069;BME280;4077;43.702;24.896;2023-07-31T00:53:52;98830.03;;;20.20;100.00
8069;BME280;4077;43.702;24.896;2023-07-31T00:56:19;98828.50;;;20.14;100.00
8069;BME280;4077;43.702;24.896;2023-07-31T00:58:44;98822.47;;;20.12;100.00
8069;BME280;4077;43.702;24.896;2023-07-31T01:01:10;98811.00;;;20.15;100.00
8069;BME280;4077;43.702;24.896;2023-07-31T01:03:35;98825.72;;;20.19;100.00
8069;BME280;4077;43.702;24.896;2023-07-31T01:11:30;98821.09;;;20.26;100.00
8069;BME280;4077;43.702;24.896;2023-07-31T01:13:56;98827.41;;;20.20;100.00
8069;BME280;4077;43.702;24.896;2023-07-31T01:16:22;98815.25;;;20.17;100.00
8069;BME280;4077;43.702;24.896;2023-07-31T01:18:48;98813.75;;;20.12;100.00
8069;BME280;4077;43.702;24.896;2023-07-31T01:21:28;98817.28;;;20.11;100.00
8069;BME280;4077;43.702;24.896;2023-07-31T01:27:04;98814.84;;;20.06;100.00
8069;BME280;4077;43.702;24.896;2023-07-31T01:29:38;98830.13;;;20.17;100.00
8069;BME280;4077;43.702;24.896;2023-07-31T01:32:09;98831.91;;;20.16;100.00
8069;BME280;4077;43.702;24.896;2023-07-31T01:34:36;98830.94;;;20.19;100.00
8069;BME280;4077;43.702;24.896;2023-07-31T01:37:02;98833.56;;;20.19;100.00
8069;BME280;4077;43.702;24.896;2023-07-31T01:39:28;98840.44;;;20.21;100.00
8069;BME280;4077;43.702;24.896;2023-07-31T01:41:53;98840.56;;;20.18;100.00
8069;BME280;4077;43.702;24.896;2023-07-31T01:44:19;98823.38;;;20.11;100.00
8069;BME280;4077;43.702;24.896;2023-07-31T01:46:44;98835.56;;;20.12;100.00
8069;BME280;4077;43.702;24.896;2023-07-31T01:49:10;98841.72;;;20.11;100.00
8069;BME280;4077;43.702;24.896;2023-07-31T01:51:35;98839.34;;;20.05;100.00
8069;BME280;4077;43.702;24.896;2023-07-31T01:54:01;98850.66;;;20.06;100.00
8069;BME280;4077;43.702;24.896;2023-07-31T01:56:27;98852.44;;;20.05;100.00
8069;BME280;4077;43.702;24.896;2023-07-31T01:58:52;98858.47;;;20.07;100.00
8069;BME280;4077;43.702;24.896;2023-07-31T02:01:18;98853.16;;;20.09;100.00
8069;BME280;4077;43.702;24.896;2023-07-31T02:03:43;98861.88;;;20.09;100.00
8069;BME280;4077;43.702;24.896;2023-07-31T02:06:08;98862.00;;;20.06;100.00
8069;BME280;4077;43.702;24.896;2023-07-31T02:08:34;98865.31;;;20.11;100.00
8069;BME280;4077;43.702;24.896;2023-07-31T02:10:59;98851.50;;;20.06;100.00
8069;BME280;4077;43.702;24.896;2023-07-31T02:13:25;98859.16;;;20.12;100.00
8069;BME280;4077;43.702;24.896;2023-07-31T02:15:50;98863.25;;;20.19;100.00
8069;BME280;4077;43.702;24.896;2023-07-31T02:18:16;98868.56;;;20.18;100.00
8069;BME280;4077;43.702;24.896;2023-07-31T02:20:42;98863.34;;;20.16;100.00
8069;BME280;4077;43.702;24.896;2023-07-31T02:23:08;98858.94;;;20.18;100.00
8069;BME280;4077;43.702;24.896;2023-07-31T02:25:33;98855.44;;;20.18;100.00
8069;BME280;4077;43.702;24.896;2023-07-31T02:27:58;98863.19;;;20.21;100.00
8069;BME280;4077;43.702;24.896;2023-07-31T02:30:24;98864.03;;;20.21;100.00
8069;BME280;4077;43.702;24.896;2023-07-31T02:32:49;98865.69;;;20.24;100.00
8069;BME280;4077;43.702;24.896;2023-07-31T02:35:15;98855.03;;;20.29;100.00
8069;BME280;4077;43.702;24.896;2023-07-31T02:37:42;98870.34;;;20.39;100.00
8069;BME280;4077;43.702;24.896;2023-07-31T02:40:08;98877.38;;;20.39;100.00
8069;BME280;4077;43.702;24.896;2023-07-31T02:42:33;98874.13;;;20.32;100.00
8069;BME280;4077;43.702;24.896;2023-07-31T02:44:58;98862.53;;;20.38;100.00
8069;BME280;4077;43.702;24.896;2023-07-31T02:47:24;98865.84;;;20.43;100.00
8069;BME280;4077;43.702;24.896;2023-07-31T02:49:49;98880.66;;;20.45;100.00
8069;BME280;4077;43.702;24.896;2023-07-31T02:52:15;98868.19;;;20.51;100.00
8069;BME280;4077;43.702;24.896;2023-07-31T02:54:40;98874.19;;;20.54;100.00
8069;BME280;4077;43.702;24.896;2023-07-31T02:57:06;98865.41;;;20.55;100.00
8069;BME280;4077;43.702;24.896;2023-07-31T02:59:31;98870.22;;;20.66;100.00
8069;BME280;4077;43.702;24.896;2023-07-31T03:01:56;98877.13;;;20.68;100.00
8069;BME280;4077;43.702;24.896;2023-07-31T03:04:22;98880.75;;;20.64;100.00
8069;BME280;4077;43.702;24.896;2023-07-31T03:06:48;98876.50;;;20.62;100.00
8069;BME280;4077;43.702;24.896;2023-07-31T03:09:13;98882.47;;;20.65;100.00
8069;BME280;4077;43.702;24.896;2023-07-31T03:11:39;98879.06;;;20.63;100.00
8069;BME280;4077;43.702;24.896;2023-07-31T03:14:04;98877.81;;;20.50;100.00
8069;BME280;4077;43.702;24.896;2023-07-31T03:16:29;98873.63;;;20.46;100.00
8069;BME280;4077;43.702;24.896;2023-07-31T03:18:55;98869.72;;;20.56;100.00
8069;BME280;4077;43.702;24.896;2023-07-31T03:21:21;98871.25;;;20.62;100.00
8069;BME280;4077;43.702;24.896;2023-07-31T03:23:47;98887.31;;;20.76;100.00
8069;BME280;4077;43.702;24.896;2023-07-31T03:26:12;98878.44;;;20.79;100.00
8069;BME280;4077;43.702;24.896;2023-07-31T03:28:38;98886.22;;;20.82;100.00
8069;BME280;4077;43.702;24.896;2023-07-31T03:31:04;98881.06;;;20.79;100.00
8069;BME280;4077;43.702;24.896;2023-07-31T03:33:29;98890.41;;;20.86;100.00
8069;BME280;4077;43.702;24.896;2023-07-31T03:35:55;98888.66;;;20.86;100.00
8069;BME280;4077;43.702;24.896;2023-07-31T03:38:20;98887.00;;;20.84;100.00
8069;BME280;4077;43.702;24.896;2023-07-31T03:40:46;98882.22;;;20.71;100.00
8069;BME280;4077;43.702;24.896;2023-07-31T03:43:12;98878.13;;;20.64;100.00
8069;BME280;4077;43.702;24.896;2023-07-31T03:45:38;98887.13;;;20.81;100.00
8069;BME280;4077;43.702;24.896;2023-07-31T03:48:04;98893.03;;;20.86;100.00
8069;BME280;4077;43.702;24.896;2023-07-31T03:50:29;98887.84;;;20.62;100.00
8069;BME280;4077;43.702;24.896;2023-07-31T03:52:55;98892.06;;;20.66;100.00
8069;BME280;4077;43.702;24.896;2023-07-31T03:55:20;98897.97;;;20.71;100.00
8069;BME280;4077;43.702;24.896;2023-07-31T03:57:47;98906.81;;;20.69;100.00
8069;BME280;4077;43.702;24.896;2023-07-31T04:00:12;98903.09;;;20.74;100.00
8069;BME280;4077;43.702;24.896;2023-07-31T04:02:38;98907.75;;;20.90;100.00
8069;BME280;4077;43.702;24.896;2023-07-31T04:05:03;98900.78;;;20.89;100.00
8069;BME280;4077;43.702;24.896;2023-07-31T04:07:29;98914.88;;;20.86;100.00
8069;BME280;4077;43.702;24.896;2023-07-31T04:09:56;98926.16;;;21.10;100.00
8069;BME280;4077;43.702;24.896;2023-07-31T04:12:22;98926.03;;;21.13;100.00
8069;BME280;4077;43.702;24.896;2023-07-31T04:14:47;98925.63;;;21.02;100.00
8069;BME280;4077;43.702;24.896;2023-07-31T04:17:13;98931.78;;;21.23;100.00
8069;BME280;4077;43.702;24.896;2023-07-31T04:19:38;98929.84;;;21.26;100.00
8069;BME280;4077;43.702;24.896;2023-07-31T04:22:04;98931.63;;;21.26;100.00
8069;BME280;4077;43.702;24.896;2023-07-31T04:24:29;98930.41;;;21.13;100.00
8069;BME280;4077;43.702;24.896;2023-07-31T04:26:55;98935.97;;;21.28;100.00
8069;BME280;4077;43.702;24.896;2023-07-31T04:29:21;98939.16;;;21.13;100.00
8069;BME280;4077;43.702;24.896;2023-07-31T04:31:47;98938.88;;;21.21;100.00
8069;BME280;4077;43.702;24.896;2023-07-31T04:34:13;98944.97;;;21.21;100.00
8069;BME280;4077;43.702;24.896;2023-07-31T04:36:38;98943.38;;;21.17;100.00
8069;BME280;4077;43.702;24.896;2023-07-31T04:39:04;98938.75;;;21.02;100.00
8069;BME280;4077;43.702;24.896;2023-07-31T04:41:29;98946.22;;;21.35;100.00
8069;BME280;4077;43.702;24.896;2023-07-31T04:43:55;98936.03;;;21.25;100.00
8069;BME280;4077;43.702;24.896;2023-07-31T04:46:20;98936.03;;;21.25;100.00
8069;BME280;4077;43.702;24.896;2023-07-31T04:48:45;98944.97;;;21.21;100.00
8069;BME280;4077;43.702;24.896;2023-07-31T04:51:11;98947.34;;;21.27;100.00
8069;BME280;4077;43.702;24.896;2023-07-31T04:53:36;98950.25;;;21.20;100.00
8069;BME280;4077;43.702;24.896;2023-07-31T04:56:02;98937.88;;;21.01;100.00
8069;BME280;4077;43.702;24.896;2023-07-31T04:58:27;98933.59;;;20.99;100.00
8069;BME280;4077;43.702;24.896;2023-07-31T05:00:53;98945.53;;;21.29;100.00
8069;BME280;4077;43.702;24.896;2023-07-31T05:03:18;98944.59;;;21.30;100.00
8069;BME280;4077;43.702;24.896;2023-07-31T05:05:44;98945.22;;;21.37;100.00
8069;BME280;4077;43.702;24.896;2023-07-31T05:08:09;98951.47;;;21.35;100.00
8069;BME280;4077;43.702;24.896;2023-07-31T05:10:35;98949.97;;;21.49;100.00
8069;BME280;4077;43.702;24.896;2023-07-31T05:13:00;98941.25;;;21.69;100.00
8069;BME280;4077;43.702;24.896;2023-07-31T05:15:26;98937.56;;;21.73;100.00
8069;BME280;4077;43.702;24.896;2023-07-31T05:17:51;98956.59;;;21.78;100.00
8069;BME280;4077;43.702;24.896;2023-07-31T05:20:17;98956.88;;;21.72;100.00
8069;BME280;4077;43.702;24.896;2023-07-31T05:22:42;98956.72;;;21.75;100.00
8069;BME280;4077;43.702;24.896;2023-07-31T05:25:08;98950.69;;;21.73;100.00
8069;BME280;4077;43.702;24.896;2023-07-31T05:27:33;98953.81;;;21.61;100.00
8069;BME280;4077;43.702;24.896;2023-07-31T05:29:59;98959.06;;;21.61;100.00
8069;BME280;4077;43.702;24.896;2023-07-31T05:32:24;98954.31;;;21.71;100.00
8069;BME280;4077;43.702;24.896;2023-07-31T05:34:53;98967.09;;;21.58;100.00
8069;BME280;4077;43.702;24.896;2023-07-31T05:37:19;98968.72;;;21.82;100.00
8069;BME280;4077;43.702;24.896;2023-07-31T05:39:45;98956.41;;;21.83;100.00
8069;BME280;4077;43.702;24.896;2023-07-31T05:42:10;98981.88;;;21.81;100.00
8069;BME280;4077;43.702;24.896;2023-07-31T05:44:35;98983.41;;;21.87;100.00
8069;BME280;4077;43.702;24.896;2023-07-31T05:47:01;98975.13;;;21.96;100.00
8069;BME280;4077;43.702;24.896;2023-07-31T05:49:26;98966.72;;;21.88;100.00
8069;BME280;4077;43.702;24.896;2023-07-31T05:51:52;98987.47;;;21.94;100.00
8069;BME280;4077;43.702;24.896;2023-07-31T05:54:17;98987.72;;;21.88;100.00
8069;BME280;4077;43.702;24.896;2023-07-31T05:56:43;98989.19;;;21.95;100.00
8069;BME280;4077;43.702;24.896;2023-07-31T05:59:09;98993.31;;;22.00;100.00
8069;BME280;4077;43.702;24.896;2023-07-31T06:01:35;98990.88;;;21.75;100.00
8069;BME280;4077;43.702;24.896;2023-07-31T06:04:00;98990.69;;;21.80;100.00
8069;BME280;4077;43.702;24.896;2023-07-31T06:06:27;98987.88;;;22.05;100.00
8069;BME280;4077;43.702;24.896;2023-07-31T06:08:53;98999.34;;;22.24;100.00
8069;BME280;4077;43.702;24.896;2023-07-31T06:11:22;99003.25;;;22.34;100.00
8069;BME280;4077;43.702;24.896;2023-07-31T06:13:48;99002.22;;;22.38;100.00
8069;BME280;4077;43.702;24.896;2023-07-31T06:16:15;99002.22;;;22.38;100.00
8069;BME280;4077;43.702;24.896;2023-07-31T06:18:41;98997.00;;;22.37;100.00
8069;BME280;4077;43.702;24.896;2023-07-31T06:21:08;98996.03;;;22.39;100.00
8069;BME280;4077;43.702;24.896;2023-07-31T06:23:33;99003.13;;;22.37;100.00
8069;BME280;4077;43.702;24.896;2023-07-31T06:25:59;98994.44;;;22.35;100.00
8069;BME280;4077;43.702;24.896;2023-07-31T06:28:28;98994.44;;;22.35;100.00
8069;BME280;4077;43.702;24.896;2023-07-31T06:30:59;98993.81;;;22.49;100.00
8069;BME280;4077;43.702;24.896;2023-07-31T06:33:26;98978.88;;;22.50;100.00
8069;BME280;4077;43.702;24.896;2023-07-31T06:35:51;98995.31;;;22.55;100.00
8069;BME280;4077;43.702;24.896;2023-07-31T06:38:23;98992.03;;;22.50;100.00
8069;BME280;4077;43.702;24.896;2023-07-31T06:40:49;98998.09;;;22.52;100.00
8069;BME280;4077;43.702;24.896;2023-07-31T06:43:15;98996.06;;;22.58;100.00
8069;BME280;4077;43.702;24.896;2023-07-31T06:45:40;98997.31;;;22.50;100.00
8069;BME280;4077;43.702;24.896;2023-07-31T06:48:06;98990.06;;;22.55;100.00
8069;BME280;4077;43.702;24.896;2023-07-31T06:50:31;98991.50;;;22.62;100.00
8069;BME280;4077;43.702;24.896;2023-07-31T06:52:57;98989.50;;;22.67;100.00
8069;BME280;4077;43.702;24.896;2023-07-31T06:55:23;98985.94;;;22.68;100.00
8069;BME280;4077;43.702;24.896;2023-07-31T06:57:50;98992.09;;;22.87;100.00
8069;BME280;4077;43.702;24.896;2023-07-31T07:00:16;99000.59;;;22.74;100.00
8069;BME280;4077;43.702;24.896;2023-07-31T07:02:42;99001.16;;;22.61;100.00
8069;BME280;4077;43.702;24.896;2023-07-31T07:05:08;98996.25;;;22.54;100.00
8069;BME280;4077;43.702;24.896;2023-07-31T07:07:34;99005.06;;;22.53;100.00
8069;BME280;4077;43.702;24.896;2023-07-31T07:10:00;99009.69;;;22.48;100.00
8069;BME280;4077;43.702;24.896;2023-07-31T07:12:28;99012.16;;;22.51;100.00
8069;BME280;4077;43.702;24.896;2023-07-31T07:14:54;99001.31;;;22.58;100.00
8069;BME280;4077;43.702;24.896;2023-07-31T07:17:20;99011.69;;;22.61;100.00
8069;BME280;4077;43.702;24.896;2023-07-31T07:19:45;99008.19;;;22.61;100.00
8069;BME280;4077;43.702;24.896;2023-07-31T07:22:12;99015.81;;;22.67;100.00
8069;BME280;4077;43.702;24.896;2023-07-31T07:24:38;99025.25;;;22.71;100.00
8069;BME280;4077;43.702;24.896;2023-07-31T07:27:04;99033.81;;;22.76;100.00
8069;BME280;4077;43.702;24.896;2023-07-31T07:29:29;99036.16;;;22.82;100.00
8069;BME280;4077;43.702;24.896;2023-07-31T07:31:55;99033.47;;;22.84;100.00
8069;BME280;4077;43.702;24.896;2023-07-31T07:34:23;99037.00;;;22.83;100.00
8069;BME280;4077;43.702;24.896;2023-07-31T07:36:49;99050.44;;;22.77;100.00
8069;BME280;4077;43.702;24.896;2023-07-31T07:39:17;99047.13;;;22.73;100.00
8069;BME280;4077;43.702;24.896;2023-07-31T07:41:43;99045.81;;;22.63;100.00
8069;BME280;4077;43.702;24.896;2023-07-31T07:44:08;99038.66;;;22.66;100.00
8069;BME280;4077;43.702;24.896;2023-07-31T07:46:34;99056.78;;;22.73;100.00
8069;BME280;4077;43.702;24.896;2023-07-31T07:49:00;99054.09;;;22.74;100.00
8069;BME280;4077;43.702;24.896;2023-07-31T07:51:25;99054.50;;;22.65;100.00
8069;BME280;4077;43.702;24.896;2023-07-31T07:53:51;99052.94;;;22.61;100.00
8069;BME280;4077;43.702;24.896;2023-07-31T07:56:16;99050.94;;;22.66;100.00
8069;BME280;4077;43.702;24.896;2023-07-31T07:58:42;99052.66;;;22.67;100.00
8069;BME280;4077;43.702;24.896;2023-07-31T08:01:07;99053.31;;;22.72;100.00
8069;BME280;4077;43.702;24.896;2023-07-31T08:03:33;99048.66;;;22.77;100.00
8069;BME280;4077;43.702;24.896;2023-07-31T08:06:01;99045.59;;;22.88;100.00
8069;BME280;4077;43.702;24.896;2023-07-31T08:08:28;99036.41;;;22.97;100.00
8069;BME280;4077;43.702;24.896;2023-07-31T08:10:53;99044.75;;;23.06;100.00
8069;BME280;4077;43.702;24.896;2023-07-31T08:13:19;99038.31;;;23.12;100.00
8069;BME280;4077;43.702;24.896;2023-07-31T08:15:44;99047.31;;;23.08;100.00
8069;BME280;4077;43.702;24.896;2023-07-31T08:18:10;99040.81;;;22.96;100.00
8069;BME280;4077;43.702;24.896;2023-07-31T08:20:37;99035.44;;;22.99;100.00
8069;BME280;4077;43.702;24.896;2023-07-31T08:23:02;99039.41;;;23.08;100.00
8069;BME280;4077;43.702;24.896;2023-07-31T08:25:28;99043.47;;;23.15;100.00
8069;BME280;4077;43.702;24.896;2023-07-31T08:27:54;99042.63;;;23.14;100.00
8069;BME280;4077;43.702;24.896;2023-07-31T08:30:19;99046.88;;;23.17;100.00
8069;BME280;4077;43.702;24.896;2023-07-31T08:32:45;99040.66;;;23.18;100.00
8069;BME280;4077;43.702;24.896;2023-07-31T08:35:10;99042.53;;;23.16;100.00
8069;BME280;4077;43.702;24.896;2023-07-31T08:37:37;99036.91;;;23.24;100.00
8069;BME280;4077;43.702;24.896;2023-07-31T08:40:04;99040.25;;;23.27;100.00
8069;BME280;4077;43.702;24.896;2023-07-31T08:42:29;99038.47;;;23.28;100.00
8069;BME280;4077;43.702;24.896;2023-07-31T08:44:55;99044.16;;;23.37;100.00
8069;BME280;4077;43.702;24.896;2023-07-31T08:47:21;99044.16;;;23.37;100.00
8069;BME280;4077;43.702;24.896;2023-07-31T08:49:47;99047.22;;;23.47;100.00
8069;BME280;4077;43.702;24.896;2023-07-31T08:52:13;99042.22;;;23.41;100.00
8069;BME280;4077;43.702;24.896;2023-07-31T08:54:39;99050.44;;;23.52;100.00
8069;BME280;4077;43.702;24.896;2023-07-31T08:57:06;99051.09;;;23.57;100.00
8069;BME280;4077;43.702;24.896;2023-07-31T08:59:34;99043.25;;;23.56;100.00
8069;BME280;4077;43.702;24.896;2023-07-31T09:02:07;99049.69;;;23.69;100.00
8069;BME280;4077;43.702;24.896;2023-07-31T09:04:34;99052.34;;;23.67;100.00
8069;BME280;4077;43.702;24.896;2023-07-31T09:07:02;99052.53;;;23.64;100.00
8069;BME280;4077;43.702;24.896;2023-07-31T09:09:30;99053.53;;;23.79;100.00
8069;BME280;4077;43.702;24.896;2023-07-31T09:11:57;99060.09;;;23.89;100.00
8069;BME280;4077;43.702;24.896;2023-07-31T09:14:24;99061.31;;;23.99;100.00
8069;BME280;4077;43.702;24.896;2023-07-31T09:16:55;99049.84;;;24.00;100.00
8069;BME280;4077;43.702;24.896;2023-07-31T09:19:36;99055.06;;;24.02;100.00
8069;BME280;4077;43.702;24.896;2023-07-31T09:22:06;99065.81;;;23.97;100.00
8069;BME280;4077;43.702;24.896;2023-07-31T09:24:33;99067.34;;;24.01;100.00
8069;BME280;4077;43.702;24.896;2023-07-31T09:27:00;99059.78;;;23.95;100.00
8069;BME280;4077;43.702;24.896;2023-07-31T09:29:28;99066.13;;;23.91;100.00
8069;BME280;4077;43.702;24.896;2023-07-31T09:31:55;99064.72;;;23.84;100.00
8069;BME280;4077;43.702;24.896;2023-07-31T09:34:28;99061.16;;;23.85;100.00
8069;BME280;4077;43.702;24.896;2023-07-31T09:36:54;99054.66;;;23.75;100.00
8069;BME280;4077;43.702;24.896;2023-07-31T09:39:19;99041.97;;;23.64;100.00
8069;BME280;4077;43.702;24.896;2023-07-31T09:41:48;99060.34;;;23.66;100.00
8069;BME280;4077;43.702;24.896;2023-07-31T09:44:18;99063.25;;;23.60;100.00
8069;BME280;4077;43.702;24.896;2023-07-31T09:46:43;99053.63;;;23.59;100.00
8069;BME280;4077;43.702;24.896;2023-07-31T09:49:13;99052.22;;;23.52;100.00
8069;BME280;4077;43.702;24.896;2023-07-31T09:51:41;99048.19;;;23.44;100.00
8069;BME280;4077;43.702;24.896;2023-07-31T09:54:16;99057.50;;;23.52;100.00
8069;BME280;4077;43.702;24.896;2023-07-31T09:56:49;99045.84;;;23.38;100.00
8069;BME280;4077;43.702;24.896;2023-07-31T09:59:16;99055.59;;;23.36;100.00
8069;BME280;4077;43.702;24.896;2023-07-31T10:01:43;99062.75;;;23.34;100.00
8069;BME280;4077;43.702;24.896;2023-07-31T10:04:10;99048.28;;;23.24;100.00
8069;BME280;4077;43.702;24.896;2023-07-31T10:06:36;99061.38;;;23.26;100.00
8069;BME280;4077;43.702;24.896;2023-07-31T10:09:05;99063.31;;;23.22;100.00
8069;BME280;4077;43.702;24.896;2023-07-31T10:11:34;99068.50;;;23.24;100.00
8069;BME280;4077;43.702;24.896;2023-07-31T10:14:03;99055.69;;;23.16;100.00
8069;BME280;4077;43.702;24.896;2023-07-31T10:16:30;99065.22;;;23.18;100.00
8069;BME280;4077;43.702;24.896;2023-07-31T10:18:56;99060.19;;;23.14;100.00
8069;BME280;4077;43.702;24.896;2023-07-31T10:21:22;99056.72;;;23.13;100.00
8069;BME280;4077;43.702;24.896;2023-07-31T10:23:47;99061.13;;;23.13;100.00
8069;BME280;4077;43.702;24.896;2023-07-31T10:26:16;99064.66;;;23.12;100.00
8069;BME280;4077;43.702;24.896;2023-07-31T10:28:43;99054.13;;;23.12;100.00
8069;BME280;4077;43.702;24.896;2023-07-31T10:31:09;99061.03;;;23.14;100.00
8069;BME280;4077;43.702;24.896;2023-07-31T10:33:35;99059.25;;;23.15;100.00
8069;BME280;4077;43.702;24.896;2023-07-31T10:36:33;99062.38;;;23.23;100.00
8069;BME280;4077;43.702;24.896;2023-07-31T10:38:58;99063.97;;;23.27;100.00
8069;BME280;4077;43.702;24.896;2023-07-31T10:41:33;99059.47;;;23.29;100.00
8069;BME280;4077;43.702;24.896;2023-07-31T10:44:00;99056.53;;;23.35;100.00
8069;BME280;4077;43.702;24.896;2023-07-31T10:46:28;99046.22;;;23.31;100.00
8069;BME280;4077;43.702;24.896;2023-07-31T10:49:02;99058.72;;;23.44;100.00
8069;BME280;4077;43.702;24.896;2023-07-31T10:51:35;99047.13;;;23.48;100.00
8069;BME280;4077;43.702;24.896;2023-07-31T10:54:13;99049.59;;;23.52;100.00
8069;BME280;4077;43.702;24.896;2023-07-31T10:56:40;99051.00;;;23.59;100.00
8069;BME280;4077;43.702;24.896;2023-07-31T10:59:09;99044.13;;;23.56;100.00
8069;BME280;4077;43.702;24.896;2023-07-31T11:01:54;99040.84;;;23.70;100.00
8069;BME280;4077;43.702;24.896;2023-07-31T11:04:26;99042.84;;;23.65;100.00
8069;BME280;4077;43.702;24.896;2023-07-31T11:07:02;99039.44;;;23.63;100.00
8069;BME280;4077;43.702;24.896;2023-07-31T11:09:31;99037.56;;;23.65;100.00
8069;BME280;4077;43.702;24.896;2023-07-31T11:11:58;99034.94;;;23.65;100.00
8069;BME280;4077;43.702;24.896;2023-07-31T11:14:24;99038.19;;;23.70;100.00
8069;BME280;4077;43.702;24.896;2023-07-31T11:16:50;99034.63;;;23.71;100.00
8069;BME280;4077;43.702;24.896;2023-07-31T11:19:23;99031.81;;;23.74;100.00
8069;BME280;4077;43.702;24.896;2023-07-31T11:21:49;99030.03;;;23.38;100.00
8069;BME280;4077;43.702;24.896;2023-07-31T11:24:15;99031.19;;;23.33;100.00
8069;BME280;4077;43.702;24.896;2023-07-31T11:26:49;99018.09;;;23.12;100.00
8069;BME280;4077;43.702;24.896;2023-07-31T11:29:15;99023.94;;;23.19;100.00
8069;BME280;4077;43.702;24.896;2023-07-31T11:31:44;99019.94;;;23.48;100.00
8069;BME280;4077;43.702;24.896;2023-07-31T11:34:10;99020.31;;;23.40;100.00
8069;BME280;4077;43.702;24.896;2023-07-31T11:36:35;99012.41;;;23.40;100.00
8069;BME280;4077;43.702;24.896;2023-07-31T11:39:09;99009.72;;;23.23;100.00
8069;BME280;4077;43.702;24.896;2023-07-31T11:41:35;99010.28;;;23.30;100.00
8069;BME280;4077;43.702;24.896;2023-07-31T11:44:01;99002.63;;;23.60;100.00
8069;BME280;4077;43.702;24.896;2023-07-31T11:46:30;98998.09;;;23.81;100.00
8069;BME280;4077;43.702;24.896;2023-07-31T11:48:59;98992.31;;;23.91;100.00
8069;BME280;4077;43.702;24.896;2023-07-31T11:51:25;98989.59;;;24.10;100.00
8069;BME280;4077;43.702;24.896;2023-07-31T11:53:56;98993.72;;;24.32;100.00
8069;BME280;4077;43.702;24.896;2023-07-31T11:56:23;98990.06;;;24.51;100.00
8069;BME280;4077;43.702;24.896;2023-07-31T11:58:53;98985.50;;;24.71;100.00
8069;BME280;4077;43.702;24.896;2023-07-31T12:01:21;98977.75;;;24.68;100.00
8069;BME280;4077;43.702;24.896;2023-07-31T12:03:47;98976.22;;;24.79;100.00
8069;BME280;4077;43.702;24.896;2023-07-31T12:06:13;98985.09;;;24.78;100.00
8069;BME280;4077;43.702;24.896;2023-07-31T12:08:39;98993.16;;;24.75;100.00
8069;BME280;4077;43.702;24.896;2023-07-31T12:11:05;98986.41;;;24.70;100.00
8069;BME280;4077;43.702;24.896;2023-07-31T12:13:32;98976.97;;;24.33;100.00
8069;BME280;4077;43.702;24.896;2023-07-31T12:15:59;98980.28;;;24.53;100.00
8069;BME280;4077;43.702;24.896;2023-07-31T12:18:28;98972.69;;;24.47;100.00
8069;BME280;4077;43.702;24.896;2023-07-31T12:23:25;98980.41;;;24.35;100.00
8069;BME280;4077;43.702;24.896;2023-07-31T12:26:13;98980.09;;;24.56;100.00
8069;BME280;4077;43.702;24.896;2023-07-31T12:28:44;98979.84;;;24.45;100.00
8069;BME280;4077;43.702;24.896;2023-07-31T12:31:12;98972.78;;;24.62;100.00
8069;BME280;4077;43.702;24.896;2023-07-31T12:33:39;98974.59;;;24.61;100.00
8069;BME280;4077;43.702;24.896;2023-07-31T12:36:08;98967.16;;;24.52;100.00
8069;BME280;4077;43.702;24.896;2023-07-31T12:38:34;98971.84;;;24.63;100.00
8069;BME280;4077;43.702;24.896;2023-07-31T12:41:00;98966.66;;;24.77;100.00
8069;BME280;4077;43.702;24.896;2023-07-31T12:43:25;98964.72;;;24.96;100.00
8069;BME280;4077;43.702;24.896;2023-07-31T12:45:51;98966.06;;;25.03;100.00
8069;BME280;4077;43.702;24.896;2023-07-31T12:48:18;98970.78;;;25.30;100.00
8069;BME280;4077;43.702;24.896;2023-07-31T12:50:43;98970.22;;;25.39;100.00
8069;BME280;4077;43.702;24.896;2023-07-31T12:53:08;98973.72;;;25.55;100.00
8069;BME280;4077;43.702;24.896;2023-07-31T12:55:34;98977.03;;;25.75;100.00
8069;BME280;4077;43.702;24.896;2023-07-31T12:58:02;98972.13;;;25.83;100.00
8069;BME280;4077;43.702;24.896;2023-07-31T13:00:27;98970.81;;;25.90;100.00
8069;BME280;4077;43.702;24.896;2023-07-31T13:02:54;98963.94;;;25.72;100.00
8069;BME280;4077;43.702;24.896;2023-07-31T13:05:20;98963.88;;;25.57;100.00
8069;BME280;4077;43.702;24.896;2023-07-31T13:07:46;98973.13;;;25.50;100.00